Time;durP1;ratioP1;P1;durP2;ratioP2;P2;SDS_P1;SDS_P2;PMS_P1;PMS_P2;Temp;Humidity;BMP_temperature;BMP_pressure;BME280_temperature;BME280_humidity;BME280_pressure;Samples;Min_cycle;Max_cycle;Signal;HPM_P1;HPM_P2
2023/08/22 00:01:25;;;;;;;10.63;9.60;;;15.40;99.90;;;;;;4997653;28;20503;-78
2023/08/22 00:03:56;;;;;;;9.43;8.52;;;15.50;99.90;;;;;;4978765;28;20068;-78
2023/08/22 00:06:43;;;;;;;10.57;9.13;;;15.40;99.90;;;;;;4973603;28;20053;-78
2023/08/22 00:09:12;;;;;;;13.68;12.35;;;15.40;99.90;;;;;;4968589;28;20381;-78
2023/08/22 00:11:40;;;;;;;11.73;10.50;;;15.40;99.90;;;;;;4996481;28;20058;-80
2023/08/22 00:14:09;;;;;;;10.90;9.85;;;15.40;99.90;;;;;;4977297;28;20517;-78
2023/08/22 00:16:38;;;;;;;15.75;13.45;;;15.40;99.90;;;;;;4960195;28;20049;-78
2023/08/22 00:19:10;;;;;;;12.10;10.90;;;15.40;99.90;;;;;;4968245;28;20077;-78
2023/08/22 00:21:36;;;;;;;12.27;11.18;;;15.30;99.90;;;;;;4993993;28;20153;-78
2023/08/22 00:24:03;;;;;;;18.50;16.60;;;15.30;99.90;;;;;;4973489;28;20039;-78
2023/08/22 00:26:29;;;;;;;36.60;24.77;;;15.30;99.90;;;;;;4956615;28;20042;-79
2023/08/22 00:28:56;;;;;;;21.88;19.73;;;15.30;99.90;;;;;;4968545;28;20132;-78
2023/08/22 00:31:25;;;;;;;12.20;11.00;;;15.20;99.90;;;;;;4995477;28;20400;-78
2023/08/22 00:33:51;;;;;;;15.63;12.60;;;15.20;99.90;;;;;;4977938;28;20061;-79
2023/08/22 00:36:20;;;;;;;14.50;13.10;;;15.20;99.90;;;;;;4957546;28;20050;-78
2023/08/22 00:38:46;;;;;;;11.57;10.32;;;15.10;99.90;;;;;;4960859;28;20037;-78
2023/08/22 00:41:16;;;;;;;11.10;10.00;;;15.10;99.90;;;;;;4995915;28;20042;-78
2023/08/22 00:43:43;;;;;;;14.70;13.02;;;15.10;99.90;;;;;;4964450;28;20038;-78
2023/08/22 00:46:09;;;;;;;13.45;12.10;;;15.00;99.90;;;;;;4963332;28;20074;-78
2023/08/22 00:48:36;;;;;;;14.13;12.77;;;14.90;99.90;;;;;;4966990;28;20062;-79
2023/08/22 00:51:04;;;;;;;13.70;12.30;;;14.90;99.90;;;;;;4984437;28;20489;-78
2023/08/22 00:53:35;;;;;;;15.63;14.02;;;14.90;99.90;;;;;;4979264;28;20527;-79
2023/08/22 00:56:02;;;;;;;13.35;11.88;;;14.90;99.90;;;;;;4978912;28;20097;-79
2023/08/22 00:58:28;;;;;;;11.23;10.10;;;14.90;99.90;;;;;;4985549;28;20125;-79
2023/08/22 01:01:02;;;;;;;12.40;11.30;;;14.90;99.90;;;;;;4962594;28;20500;-78
2023/08/22 01:03:28;;;;;;;13.63;12.23;;;14.80;99.90;;;;;;4963801;28;20038;-79
2023/08/22 01:06:15;;;;;;;13.80;12.45;;;14.80;99.90;;;;;;4963384;28;20042;-78
2023/08/22 01:08:49;;;;;;;18.67;16.90;;;14.80;99.90;;;;;;4967820;28;20041;-78
2023/08/22 01:11:29;;;;;;;31.80;25.45;;;14.80;99.90;;;;;;4976747;28;20054;-78
2023/08/22 01:14:02;;;;;;;16.27;14.77;;;14.80;99.90;;;;;;4977724;28;20046;-79
2023/08/22 01:16:31;;;;;;;15.65;14.07;;;14.80;99.90;;;;;;4959696;28;20047;-79
2023/08/22 01:19:02;;;;;;;16.38;14.93;;;14.90;99.90;;;;;;4967934;28;20038;-79
2023/08/22 01:21:29;;;;;;;31.35;27.33;;;14.80;99.90;;;;;;4976881;28;20493;-80
2023/08/22 01:23:56;;;;;;;17.67;15.82;;;14.90;99.90;;;;;;4962586;28;20042;-79
2023/08/22 01:26:22;;;;;;;18.40;16.77;;;14.90;99.90;;;;;;4979633;28;20038;-78
2023/08/22 01:28:56;;;;;;;22.27;20.27;;;14.90;99.90;;;;;;4970750;28;20049;-79
2023/08/22 01:31:36;;;;;;;23.20;20.75;;;14.90;99.90;;;;;;4993064;28;20053;-79
2023/08/22 01:34:16;;;;;;;18.60;16.85;;;14.90;99.90;;;;;;4964126;28;20046;-78
2023/08/22 01:36:45;;;;;;;25.33;23.02;;;15.00;99.90;;;;;;4978803;28;20049;-79
2023/08/22 01:39:16;;;;;;;18.30;16.70;;;15.10;99.90;;;;;;4965405;28;20073;-78
2023/08/22 01:41:46;;;;;;;20.63;18.17;;;15.10;99.90;;;;;;4962574;28;20030;-79
2023/08/22 01:44:12;;;;;;;19.17;17.35;;;15.10;99.90;;;;;;4962780;28;20038;-78
2023/08/22 01:46:43;;;;;;;16.77;15.20;;;15.10;99.90;;;;;;4961930;28;20045;-79
2023/08/22 01:49:09;;;;;;;17.73;16.23;;;15.10;99.90;;;;;;4979007;28;20492;-79
2023/08/22 01:51:41;;;;;;;14.80;13.38;;;15.10;99.90;;;;;;4987920;28;20077;-78
2023/08/22 01:54:10;;;;;;;31.33;27.75;;;15.10;99.90;;;;;;4962877;28;20122;-80
2023/08/22 01:56:37;;;;;;;16.35;14.73;;;15.10;99.90;;;;;;4961713;28;20442;-78
2023/08/22 01:59:03;;;;;;;18.35;16.80;;;15.10;99.90;;;;;;4962489;28;20042;-78
2023/08/22 02:01:29;;;;;;;19.25;17.27;;;15.10;99.90;;;;;;4961733;28;20394;-78
2023/08/22 02:04:01;;;;;;;16.75;15.15;;;15.10;99.90;;;;;;4966136;28;20030;-79
2023/08/22 02:06:28;;;;;;;20.67;18.77;;;15.10;99.90;;;;;;4961965;28;20038;-78
2023/08/22 02:08:54;;;;;;;59.25;40.55;;;15.10;99.90;;;;;;4971013;28;20482;-79
2023/08/22 02:11:23;;;;;;;26.27;23.50;;;15.10;99.90;;;;;;4993174;28;20074;-79
2023/08/22 02:13:49;;;;;;;28.52;25.27;;;15.10;99.90;;;;;;4968073;28;20428;-78
2023/08/22 02:16:15;;;;;;;31.83;26.33;;;15.10;99.90;;;;;;4981943;28;20453;-78
2023/08/22 02:18:42;;;;;;;30.73;27.38;;;15.10;99.90;;;;;;4966096;28;20129;-79
2023/08/22 02:21:09;;;;;;;27.83;24.85;;;15.00;99.90;;;;;;4964567;28;20068;-80
2023/08/22 02:23:38;;;;;;;68.60;41.50;;;15.00;99.90;;;;;;4965584;28;20045;-78
2023/08/22 02:26:13;;;;;;;21.08;19.00;;;15.00;99.90;;;;;;4962935;28;20050;-79
2023/08/22 02:28:43;;;;;;;18.15;16.40;;;14.90;99.90;;;;;;4972873;28;20043;-78
2023/08/22 02:31:14;;;;;;;23.42;20.67;;;14.90;99.90;;;;;;4981615;28;20034;-79
2023/08/22 02:33:40;;;;;;;16.23;14.77;;;14.90;99.90;;;;;;4956475;28;20047;-79
2023/08/22 02:36:07;;;;;;;19.05;17.25;;;14.90;99.90;;;;;;4981593;28;20055;-80
2023/08/22 02:38:36;;;;;;;17.73;15.82;;;14.90;99.90;;;;;;4966619;28;20038;-79
2023/08/22 02:41:02;;;;;;;25.80;23.10;;;14.90;99.90;;;;;;4966106;28;20042;-78
2023/08/22 02:43:30;;;;;;;17.90;16.25;;;14.90;99.90;;;;;;4954965;28;20038;-78
2023/08/22 02:45:58;;;;;;;17.02;15.32;;;14.90;99.90;;;;;;4974390;28;20046;-78
2023/08/22 02:48:27;;;;;;;17.33;15.73;;;14.90;99.90;;;;;;4981979;28;20045;-79
2023/08/22 02:50:53;;;;;;;21.48;19.45;;;14.90;99.90;;;;;;5000480;28;20408;-80
2023/08/22 02:53:22;;;;;;;17.52;15.95;;;14.80;99.90;;;;;;4979252;28;20043;-79
2023/08/22 02:55:48;;;;;;;14.02;12.82;;;14.80;99.90;;;;;;4975367;28;20056;-79
2023/08/22 02:58:14;;;;;;;13.32;12.13;;;14.80;99.90;;;;;;4987245;28;20043;-79
2023/08/22 03:00:40;;;;;;;16.30;14.80;;;14.80;99.90;;;;;;4981523;28;20030;-78
2023/08/22 03:03:07;;;;;;;14.40;13.10;;;14.70;99.90;;;;;;5000907;28;20049;-78
2023/08/22 03:05:34;;;;;;;15.15;13.85;;;14.70;99.90;;;;;;4995132;28;20045;-78
2023/08/22 03:08:00;;;;;;;23.70;20.10;;;14.60;99.90;;;;;;4995701;28;20124;-79
2023/08/22 03:10:25;;;;;;;16.15;11.73;;;14.60;99.90;;;;;;5001306;28;20080;-78
2023/08/22 03:12:52;;;;;;;12.38;11.38;;;14.50;99.90;;;;;;5001190;28;20069;-78
2023/08/22 03:15:21;;;;;;;15.55;14.15;;;14.50;99.90;;;;;;4987424;28;20038;-78
2023/08/22 03:17:47;;;;;;;14.05;12.68;;;14.50;99.90;;;;;;4965759;28;20045;-78
2023/08/22 03:20:12;;;;;;;13.40;11.98;;;14.50;99.90;;;;;;5001044;28;20042;-79
2023/08/22 03:22:38;;;;;;;15.35;13.93;;;14.40;99.90;;;;;;4987679;28;20097;-79
2023/08/22 03:25:04;;;;;;;13.90;12.43;;;14.40;99.90;;;;;;4962941;28;20038;-79
2023/08/22 03:27:30;;;;;;;17.42;15.75;;;14.40;99.90;;;;;;4973202;28;20042;-79
2023/08/22 03:29:56;;;;;;;15.32;13.75;;;14.40;99.90;;;;;;4981182;28;20405;-78
2023/08/22 03:32:22;;;;;;;17.20;15.60;;;14.40;99.90;;;;;;4973721;28;20043;-78
2023/08/22 03:34:48;;;;;;;17.80;16.20;;;14.40;99.90;;;;;;4974321;28;20066;-78
2023/08/22 03:37:13;;;;;;;17.85;16.35;;;14.40;99.90;;;;;;4994316;28;20045;-78
2023/08/22 03:39:39;;;;;;;16.90;15.13;;;14.40;99.90;;;;;;5000177;28;20072;-78
2023/08/22 03:42:05;;;;;;;18.38;16.67;;;14.40;99.90;;;;;;4992211;28;20088;-78
2023/08/22 03:44:34;;;;;;;18.45;16.73;;;14.40;99.90;;;;;;4964189;28;20405;-78
2023/08/22 03:47:00;;;;;;;15.65;14.25;;;14.50;99.90;;;;;;4963324;28;20030;-78
2023/08/22 03:49:26;;;;;;;19.52;17.52;;;14.40;99.90;;;;;;4980349;28;20046;-78
2023/08/22 03:51:52;;;;;;;14.40;13.05;;;14.50;99.90;;;;;;4979961;28;20125;-78
2023/08/22 03:54:20;;;;;;;29.75;26.52;;;14.50;99.90;;;;;;4962784;28;20549;-78
2023/08/22 03:56:46;;;;;;;37.35;27.48;;;14.30;99.90;;;;;;4964288;28;20043;-78
2023/08/22 03:59:12;;;;;;;15.73;14.05;;;14.40;99.90;;;;;;4975551;28;20508;-79
2023/08/22 04:01:38;;;;;;;16.50;14.93;;;14.30;99.90;;;;;;4970572;28;20042;-79
2023/08/22 04:04:04;;;;;;;20.25;18.48;;;14.40;99.90;;;;;;4974244;28;20073;-79
2023/08/22 04:06:32;;;;;;;20.25;18.20;;;14.30;99.90;;;;;;4989133;28;20048;-79
2023/08/22 04:09:00;;;;;;;16.23;14.73;;;14.30;99.90;;;;;;4992952;28;20038;-78
2023/08/22 04:11:26;;;;;;;14.20;13.00;;;14.30;99.90;;;;;;4976104;28;20520;-78
2023/08/22 04:13:54;;;;;;;14.10;12.73;;;14.20;99.90;;;;;;4969351;28;20034;-75
2023/08/22 04:16:22;;;;;;;14.90;13.63;;;14.10;99.90;;;;;;4957193;28;20076;-78
2023/08/22 04:18:53;;;;;;;39.88;28.60;;;14.20;99.90;;;;;;4983445;28;20030;-77
2023/08/22 04:21:19;;;;;;;18.17;16.42;;;14.10;99.90;;;;;;4960870;28;20038;-78
2023/08/22 04:23:45;;;;;;;19.60;17.77;;;14.00;99.90;;;;;;4958529;28;20038;-77
2023/08/22 04:26:11;;;;;;;14.73;12.95;;;14.00;99.90;;;;;;4964370;28;20373;-78
2023/08/22 04:28:36;;;;;;;17.13;15.63;;;14.00;99.90;;;;;;4985582;28;20052;-78
2023/08/22 04:31:02;;;;;;;22.40;20.25;;;14.00;99.90;;;;;;4987688;28;20034;-78
2023/08/22 04:33:29;;;;;;;21.50;19.35;;;13.90;99.90;;;;;;4994959;28;20045;-78
2023/08/22 04:35:55;;;;;;;16.45;14.88;;;13.90;99.90;;;;;;4995014;28;20077;-78
2023/08/22 04:38:20;;;;;;;18.02;16.17;;;13.90;99.90;;;;;;4976698;28;20070;-77
2023/08/22 04:40:46;;;;;;;16.55;15.10;;;13.90;99.90;;;;;;4984886;28;20049;-77
2023/08/22 04:43:18;;;;;;;17.25;15.55;;;13.90;99.90;;;;;;4988583;28;20038;-77
2023/08/22 04:45:55;;;;;;;20.73;18.38;;;13.90;99.90;;;;;;4974310;28;20073;-77
2023/08/22 04:48:26;;;;;;;19.08;16.95;;;13.80;99.90;;;;;;4970202;28;20085;-77
2023/08/22 04:50:52;;;;;;;29.73;25.33;;;13.80;99.90;;;;;;4975214;28;20034;-78
2023/08/22 04:53:18;;;;;;;19.73;17.88;;;13.70;99.90;;;;;;4975498;28;20046;-77
2023/08/22 04:55:44;;;;;;;15.90;14.50;;;13.70;99.90;;;;;;4974922;28;20050;-79
2023/08/22 04:58:10;;;;;;;17.60;15.88;;;13.60;99.90;;;;;;4974967;28;20046;-78
2023/08/22 05:00:35;;;;;;;16.10;14.73;;;13.70;99.90;;;;;;4968674;28;20041;-78
2023/08/22 05:03:04;;;;;;;14.63;13.23;;;13.70;99.90;;;;;;4990754;28;20042;-77
2023/08/22 05:05:29;;;;;;;19.02;17.23;;;13.60;99.90;;;;;;4983673;28;20041;-78
2023/08/22 05:07:55;;;;;;;15.88;14.32;;;13.60;99.90;;;;;;4986843;28;20053;-77
2023/08/22 05:10:22;;;;;;;17.13;15.73;;;13.60;99.90;;;;;;4986314;28;20049;-77
2023/08/22 05:12:51;;;;;;;15.57;14.18;;;13.60;99.90;;;;;;4977389;28;20041;-77
2023/08/22 05:15:20;;;;;;;15.77;14.45;;;13.60;99.90;;;;;;4978703;28;20053;-77
2023/08/22 05:17:45;;;;;;;14.52;13.23;;;13.70;99.90;;;;;;4967060;28;20038;-78
2023/08/22 05:20:14;;;;;;;18.38;16.67;;;13.70;99.90;;;;;;4988876;28;20038;-77
2023/08/22 05:22:40;;;;;;;14.32;13.02;;;13.70;99.90;;;;;;4994381;28;20038;-77
2023/08/22 05:25:06;;;;;;;16.15;14.75;;;13.80;99.90;;;;;;4985783;28;20045;-77
2023/08/22 05:27:34;;;;;;;14.32;12.93;;;13.80;99.90;;;;;;4975170;28;20448;-77
2023/08/22 05:30:03;;;;;;;12.27;11.00;;;13.90;99.90;;;;;;4994377;28;20046;-78
2023/08/22 05:32:29;;;;;;;13.52;12.27;;;14.00;99.90;;;;;;4994379;28;20484;-77
2023/08/22 05:34:58;;;;;;;16.67;15.27;;;14.00;99.90;;;;;;4988343;28;20041;-78
2023/08/22 05:37:26;;;;;;;23.20;20.63;;;14.20;99.90;;;;;;4994068;28;20042;-78
2023/08/22 05:39:52;;;;;;;30.67;27.58;;;14.20;99.90;;;;;;4994651;28;20038;-78
2023/08/22 05:42:18;;;;;;;28.65;26.15;;;14.30;99.90;;;;;;4999736;28;20041;-77
2023/08/22 05:44:50;;;;;;;28.67;26.02;;;14.40;99.90;;;;;;4993597;28;20030;-78
2023/08/22 05:47:16;;;;;;;34.65;31.00;;;14.50;99.90;;;;;;4998072;28;20571;-78
2023/08/22 05:49:45;;;;;;;25.38;23.05;;;14.50;99.90;;;;;;4998221;28;20041;-78
2023/08/22 05:52:11;;;;;;;22.30;20.20;;;14.50;99.90;;;;;;4998478;28;20045;-78
2023/08/22 05:54:40;;;;;;;33.50;26.85;;;14.70;99.90;;;;;;4993000;28;20104;-78
2023/08/22 05:57:06;;;;;;;25.90;23.50;;;14.70;99.90;;;;;;4998092;28;20045;-77
2023/08/22 05:59:32;;;;;;;25.30;23.17;;;14.80;99.90;;;;;;4990177;28;20502;-78
2023/08/22 06:01:57;;;;;;;33.53;30.85;;;15.00;99.90;;;;;;4991506;28;20037;-78
2023/08/22 06:04:23;;;;;;;33.20;30.40;;;15.10;99.90;;;;;;4997741;28;20037;-78
2023/08/22 06:06:52;;;;;;;51.17;46.17;;;15.30;99.90;;;;;;4990480;28;20041;-78
2023/08/22 06:09:18;;;;;;;57.60;51.38;;;15.50;99.90;;;;;;4992777;28;20057;-78
2023/08/22 06:11:44;;;;;;;40.33;36.65;;;15.70;99.90;;;;;;4997953;28;20045;-78
2023/08/22 06:14:12;;;;;;;38.97;35.50;;;15.90;99.90;;;;;;4998093;28;20072;-78
2023/08/22 06:16:37;;;;;;;33.33;30.40;;;16.10;99.90;;;;;;4990985;28;20070;-78
2023/08/22 06:19:03;;;;;;;43.60;39.53;;;16.20;99.90;;;;;;4988933;28;20041;-78
2023/08/22 06:21:29;;;;;;;40.55;36.67;;;16.40;99.90;;;;;;4997599;28;20484;-78
2023/08/22 06:23:58;;;;;;;41.15;34.53;;;16.60;99.90;;;;;;4997764;28;20069;-78
2023/08/22 06:26:23;;;;;;;34.38;31.13;;;16.70;99.90;;;;;;4997287;28;20046;-78
2023/08/22 06:28:50;;;;;;;33.05;30.20;;;16.90;99.90;;;;;;4989744;28;20125;-78
2023/08/22 06:31:16;;;;;;;34.17;30.77;;;17.00;99.90;;;;;;4997515;28;20054;-78
2023/08/22 06:33:41;;;;;;;44.60;38.72;;;17.10;99.90;;;;;;4997240;28;20522;-78
2023/08/22 06:36:08;;;;;;;51.30;42.38;;;17.30;99.90;;;;;;4997144;28;20049;-78
2023/08/22 06:38:34;;;;;;;32.10;29.00;;;17.40;99.90;;;;;;4989142;28;20042;-78
2023/08/22 06:41:04;;;;;;;38.38;33.20;;;17.60;99.90;;;;;;4997256;28;20116;-78
2023/08/22 06:43:30;;;;;;;28.10;25.42;;;17.70;99.90;;;;;;5013518;28;20046;-78
2023/08/22 06:45:59;;;;;;;39.17;31.83;;;17.80;99.90;;;;;;4996868;28;20038;-78
2023/08/22 06:48:27;;;;;;;22.90;20.77;;;17.90;99.90;;;;;;4990758;28;20501;-78
2023/08/22 06:50:56;;;;;;;32.17;26.77;;;18.10;99.90;;;;;;4981426;28;20496;-78
2023/08/22 06:53:21;;;;;;;22.42;20.15;;;18.10;99.90;;;;;;4993673;28;20129;-78
2023/08/22 06:55:48;;;;;;;20.95;19.00;;;18.10;99.90;;;;;;4962050;28;20545;-78
2023/08/22 06:58:14;;;;;;;21.98;19.95;;;18.10;99.90;;;;;;4996602;28;20038;-78
2023/08/22 07:00:40;;;;;;;25.30;22.77;;;18.10;99.90;;;;;;4996707;28;20061;-79
2023/08/22 07:03:06;;;;;;;26.40;23.88;;;18.10;99.90;;;;;;4996622;28;20052;-79
2023/08/22 07:05:34;;;;;;;28.95;26.08;;;18.10;99.90;;;;;;4992549;28;20045;-79
2023/08/22 07:08:00;;;;;;;32.22;28.65;;;18.10;99.90;;;;;;4996553;28;20034;-78
2023/08/22 07:10:26;;;;;;;32.80;26.42;;;18.20;99.90;;;;;;4996524;28;20038;-78
2023/08/22 07:12:52;;;;;;;23.65;21.30;;;18.20;99.90;;;;;;4996371;28;20104;-77
2023/08/22 07:15:18;;;;;;;33.85;29.60;;;18.20;99.90;;;;;;4992954;28;20046;-78
2023/08/22 07:17:44;;;;;;;21.67;19.58;;;18.20;99.90;;;;;;4987103;28;20501;-78
2023/08/22 07:20:10;;;;;;;19.60;17.75;;;18.30;99.90;;;;;;4995310;28;20038;-78
2023/08/22 07:22:36;;;;;;;16.13;14.63;;;18.30;99.90;;;;;;4996260;28;20048;-77
2023/08/22 07:25:01;;;;;;;14.25;12.43;;;18.40;99.90;;;;;;4996331;28;20046;-77
2023/08/22 07:27:27;;;;;;;15.73;14.23;;;18.30;99.90;;;;;;4988489;28;20125;-77
2023/08/22 07:29:54;;;;;;;13.80;12.38;;;18.30;99.90;;;;;;4979876;28;20073;-78
2023/08/22 07:32:20;;;;;;;15.05;13.50;;;18.40;99.90;;;;;;4996143;28;20042;-77
2023/08/22 07:34:47;;;;;;;14.10;12.70;;;18.40;99.90;;;;;;4996234;28;20038;-77
2023/08/22 07:37:13;;;;;;;12.63;10.88;;;18.50;99.90;;;;;;4990530;28;20052;-78
2023/08/22 07:39:40;;;;;;;12.80;11.35;;;18.60;99.90;;;;;;4977160;28;20530;-77
2023/08/22 07:42:06;;;;;;;11.52;9.95;;;18.70;99.90;;;;;;4996062;28;20048;-78
2023/08/22 07:44:32;;;;;;;8.45;7.47;;;18.80;99.90;;;;;;4996285;28;20432;-78
2023/08/22 07:46:58;;;;;;;10.93;9.88;;;18.80;99.90;;;;;;4975792;28;20049;-78
2023/08/22 07:49:24;;;;;;;10.57;8.80;;;18.90;99.90;;;;;;4967490;28;20046;-77
2023/08/22 07:51:51;;;;;;;10.50;8.20;;;18.90;99.90;;;;;;4960772;28;20047;-78
2023/08/22 07:54:17;;;;;;;10.23;8.40;;;19.00;99.90;;;;;;4941607;28;20042;-78
2023/08/22 07:56:44;;;;;;;11.77;9.60;;;19.10;99.90;;;;;;4973033;28;20043;-78
2023/08/22 07:59:10;;;;;;;11.30;9.65;;;19.30;99.90;;;;;;4972337;28;20056;-78
2023/08/22 08:01:41;;;;;;;11.02;9.40;;;19.40;99.90;;;;;;4983431;28;20437;-78
2023/08/22 08:04:08;;;;;;;9.98;8.18;;;19.50;99.90;;;;;;4978781;28;20069;-78
2023/08/22 08:06:34;;;;;;;8.50;7.70;;;19.70;99.90;;;;;;4979676;28;20040;-77
2023/08/22 08:09:01;;;;;;;9.07;8.18;;;19.90;99.90;;;;;;4996255;28;20404;-78
2023/08/22 08:11:31;;;;;;;9.63;7.40;;;20.00;99.90;;;;;;4975754;28;20412;-78
2023/08/22 08:13:58;;;;;;;9.02;7.63;;;20.30;99.90;;;;;;4941039;28;20441;-77
2023/08/22 08:16:24;;;;;;;9.48;7.75;;;20.40;99.90;;;;;;4956308;28;20046;-78
2023/08/22 08:18:53;;;;;;;9.48;8.48;;;20.60;99.90;;;;;;4956668;28;20081;-78
2023/08/22 08:21:19;;;;;;;10.32;8.40;;;20.80;99.90;;;;;;4983681;28;20048;-78
2023/08/22 08:23:45;;;;;;;11.25;8.73;;;20.80;99.90;;;;;;4940493;28;20045;-78
2023/08/22 08:26:12;;;;;;;10.20;8.52;;;20.90;99.90;;;;;;4941211;28;20121;-78
2023/08/22 08:28:38;;;;;;;10.43;8.27;;;21.10;99.90;;;;;;4940779;28;20085;-77
2023/08/22 08:31:04;;;;;;;9.63;8.05;;;21.20;99.90;;;;;;4966654;28;20050;-78
2023/08/22 08:33:31;;;;;;;10.40;7.95;;;21.40;99.90;;;;;;4995203;28;20041;-78
2023/08/22 08:36:04;;;;;;;9.05;7.85;;;21.70;99.90;;;;;;4979331;28;20404;-78
2023/08/22 08:38:30;;;;;;;9.75;7.75;;;21.80;99.90;;;;;;4979442;28;20045;-78
2023/08/22 08:41:01;;;;;;;8.27;7.47;;;22.10;99.90;;;;;;4977139;28;20092;-78
2023/08/22 08:43:38;;;;;;;8.73;7.45;;;22.30;99.90;;;;;;4979328;28;20076;-78
2023/08/22 08:46:04;;;;;;;6.57;5.90;;;22.50;99.90;;;;;;4979127;28;20042;-78
2023/08/22 08:48:30;;;;;;;6.25;4.68;;;22.70;99.90;;;;;;4979559;28;20444;-78
2023/08/22 08:50:58;;;;;;;7.38;4.60;;;23.00;99.90;;;;;;4952881;28;20437;-78
2023/08/22 08:53:26;;;;;;;5.53;4.78;;;23.10;99.90;;;;;;4956727;28;20413;-78
2023/08/22 08:55:55;;;;;;;6.47;4.72;;;23.40;99.90;;;;;;4940252;28;20047;-78
2023/08/22 08:58:23;;;;;;;8.48;5.07;;;23.70;99.90;;;;;;4941403;28;20038;-78
2023/08/22 09:00:54;;;;;;;7.60;4.93;;;24.00;99.90;;;;;;4978308;28;20092;-78
2023/08/22 09:03:28;;;;;;;6.07;4.97;;;24.10;99.90;;;;;;4979069;28;20477;-78
2023/08/22 09:05:54;;;;;;;6.88;5.18;;;24.00;99.90;;;;;;4979141;28;20053;-78
2023/08/22 09:08:20;;;;;;;7.15;5.30;;;23.90;99.90;;;;;;4979179;28;20124;-78
2023/08/22 09:10:51;;;;;;;6.50;5.78;;;23.90;99.90;;;;;;4992894;28;20052;-78
2023/08/22 09:13:29;;;;;;;8.40;6.45;;;23.80;99.90;;;;;;4979454;28;20073;-78
2023/08/22 09:16:07;;;;;;;6.47;5.57;;;23.70;99.90;;;;;;4996192;28;20511;-78
2023/08/22 09:18:48;;;;;;;7.22;6.50;;;23.50;99.90;;;;;;4981610;28;20508;-78
2023/08/22 09:21:16;;;;;;;9.18;6.40;;;23.40;99.90;;;;;;4974462;28;20041;-78
2023/08/22 09:23:49;;;;;;;8.73;5.80;;;23.20;99.90;;;;;;4981180;28;20076;-78
2023/08/22 09:26:23;;;;;;;19.67;6.75;;;23.30;99.90;;;;;;4981241;28;20481;-78
2023/08/22 09:28:49;;;;;;;10.38;5.50;;;23.70;99.90;;;;;;4981760;28;20099;-78
2023/08/22 09:31:24;;;;;;;8.40;5.00;;;24.10;99.90;;;;;;4967615;28;20046;-78
2023/08/22 09:33:51;;;;;;;16.45;4.90;;;24.80;99.90;;;;;;4996996;28;20196;-78
2023/08/22 09:36:21;;;;;;;10.25;4.25;;;25.50;99.90;;;;;;4969317;28;20409;-79
2023/08/22 09:38:56;;;;;;;;;;;26.10;99.90;;;;;;4963230;28;20042;-78
2023/08/22 09:41:35;;;;;;;5.90;5.07;;;26.60;99.90;;;;;;4992728;28;20321;-78
2023/08/22 09:44:08;;;;;;;8.05;5.45;;;27.00;99.90;;;;;;4982349;28;20038;-78
2023/08/22 09:46:46;;;;;;;7.55;4.82;;;27.30;99.90;;;;;;4983067;28;20038;-79
2023/08/22 09:49:20;;;;;;;8.68;4.90;;;27.80;99.90;;;;;;4978128;28;20042;-79
2023/08/22 09:51:56;;;;;;;9.52;5.60;;;28.20;99.90;;;;;;4989679;28;20077;-79
2023/08/22 09:54:25;;;;;;;6.97;5.05;;;28.10;99.90;;;;;;4996254;28;20480;-78
2023/08/22 09:56:54;;;;;;;7.63;4.40;;;27.70;99.90;;;;;;4988186;28;20046;-78
2023/08/22 09:59:25;;;;;;;5.55;3.33;;;27.40;99.90;;;;;;4963505;28;20031;-78
2023/08/22 10:01:57;;;;;;;4.43;2.30;;;27.50;99.90;;;;;;4962922;28;20047;-78
2023/08/22 10:04:24;;;;;;;4.07;2.43;;;27.70;99.90;;;;;;4979032;28;20034;-79
2023/08/22 10:06:51;;;;;;;4.32;3.03;;;27.90;99.90;;;;;;4978685;28;20308;-78
2023/08/22 10:09:26;;;;;;;5.72;3.30;;;28.30;99.90;;;;;;4961413;28;20405;-79
2023/08/22 10:12:06;;;;;;;5.03;2.70;;;28.60;99.90;;;;;;4997417;28;20164;-79
2023/08/22 10:14:41;;;;;;;4.95;2.60;;;28.60;99.90;;;;;;4982659;28;20046;-79
2023/08/22 10:17:16;;;;;;;5.85;3.22;;;28.70;99.80;;;;;;4997669;28;20042;-79
2023/08/22 10:31:01;;;;;;;3.22;2.47;;;26.80;99.90;;;;;;4994507;28;20046;-84
2023/08/22 10:34:36;;;;;;;5.60;2.90;;;27.00;99.90;;;;;;4913751;29;20144;-84
2023/08/22 10:37:28;;;;;;;3.77;2.00;;;27.20;99.90;;;;;;4856557;29;20085;-84
2023/08/22 10:40:54;;;;;;;;;;;;;;;;;;;;;
2023/08/22 10:55:20;;;;;;;4.30;2.80;;;26.90;99.90;;;;;;4875105;29;20517;-84
2023/08/22 10:58:37;;;;;;;5.93;2.97;;;26.80;99.90;;;;;;4859451;29;20144;-85
2023/08/22 11:01:13;;;;;;;4.38;2.97;;;26.50;99.90;;;;;;4822015;29;20404;-83
2023/08/22 11:04:25;;;;;;;4.32;2.83;;;26.70;99.90;;;;;;4900578;29;20048;-83
2023/08/22 11:07:46;;;;;;;5.47;2.92;;;27.30;99.90;;;;;;4885433;29;20052;-83
2023/08/22 11:11:00;;;;;;;4.32;2.65;;;27.90;99.90;;;;;;4977285;28;20423;-83
2023/08/22 11:13:44;;;;;;;2.88;1.80;;;28.50;99.90;;;;;;4997479;28;20218;-84
2023/08/22 11:16:25;;;;;;;3.75;1.88;;;28.60;71.90;;;;;;4996989;28;20049;-84
2023/08/22 11:19:09;;;;;;;4.00;2.30;;;28.70;90.70;;;;;;4980006;28;20136;-84
2023/08/22 11:22:01;;;;;;;;;;;;;;;;;;;;;
2023/08/22 11:24:40;;;;;;;;;;;28.70;98.60;;;;;;4971738;28;20078;-83
2023/08/22 11:35:05;;;;;;;4.57;2.50;;;29.60;86.30;;;;;;4930394;28;20053;-82
2023/08/22 11:40:29;;;;;;;3.97;3.05;;;30.10;93.10;;;;;;4971300;23;20119;-85
2023/08/22 11:43:06;;;;;;;4.53;2.78;;;30.30;80.60;;;;;;4954526;29;20054;-85
2023/08/22 11:49:52;;;;;;;4.00;2.90;;;30.40;74.20;;;;;;4896918;29;20051;-85
2023/08/22 11:52:27;;;;;;;5.22;3.17;;;30.30;70.30;;;;;;4954276;28;20420;-85
2023/08/22 11:55:32;;;;;;;6.90;3.45;;;30.20;74.90;;;;;;5009374;23;20464;-78
2023/08/22 11:58:05;;;;;;;5.53;3.10;;;30.10;72.70;;;;;;4914557;28;20043;-78
2023/08/22 12:00:39;;;;;;;4.70;2.50;;;30.10;74.60;;;;;;4946248;28;20071;-78
2023/08/22 12:03:09;;;;;;;5.03;2.50;;;30.10;72.50;;;;;;4972520;23;20054;-78
2023/08/22 12:05:49;;;;;;;3.97;3.10;;;30.10;71.80;;;;;;4956503;28;20047;-81
2023/08/22 12:08:21;;;;;;;5.75;3.35;;;30.20;69.80;;;;;;4973909;28;20151;-81
2023/08/22 12:10:52;;;;;;;7.28;3.92;;;30.40;68.90;;;;;;4970790;28;20436;-78
2023/08/22 12:13:20;;;;;;;7.57;3.88;;;30.50;71.40;;;;;;4957101;28;20035;-78
2023/08/22 12:15:47;;;;;;;5.93;4.32;;;30.50;72.70;;;;;;4939475;28;20051;-78
2023/08/22 12:18:17;;;;;;;7.72;4.57;;;30.70;72.70;;;;;;4938848;28;20118;-79
2023/08/22 12:20:44;;;;;;;6.03;3.97;;;30.80;71.60;;;;;;4937776;28;20038;-78
2023/08/22 12:23:18;;;;;;;6.82;4.30;;;30.80;70.30;;;;;;4942164;28;20130;-78
2023/08/22 12:25:46;;;;;;;7.22;4.07;;;30.70;69.70;;;;;;4932744;28;20051;-79
2023/08/22 12:28:15;;;;;;;5.78;3.00;;;30.40;71.10;;;;;;4957007;28;20050;-80
2023/08/22 12:30:41;;;;;;;4.95;2.22;;;30.50;68.50;;;;;;4956675;28;20039;-78
2023/08/22 12:33:08;;;;;;;3.35;2.15;;;30.70;68.90;;;;;;4932733;28;20069;-81
2023/08/22 12:35:38;;;;;;;5.95;2.40;;;30.80;66.50;;;;;;4951061;29;20049;-81
2023/08/22 12:38:10;;;;;;;4.78;2.10;;;30.80;66.30;;;;;;4941398;28;20038;-81
2023/08/22 12:40:36;;;;;;;5.82;2.42;;;30.50;63.20;;;;;;4938688;28;20047;-78
2023/08/22 12:43:18;;;;;;;6.05;2.80;;;29.80;63.80;;;;;;4952044;28;20043;-81
2023/08/22 12:45:56;;;;;;;5.57;2.70;;;29.60;65.20;;;;;;4937404;28;20367;-79
2023/08/22 12:48:39;;;;;;;6.05;2.75;;;29.50;68.80;;;;;;4945575;28;20059;-79
2023/08/22 12:51:22;;;;;;;4.47;2.75;;;29.50;71.60;;;;;;4944872;28;20047;-79
2023/08/22 12:54:06;;;;;;;5.25;3.10;;;29.80;72.50;;;;;;4945623;28;20052;-79
2023/08/22 12:56:40;;;;;;;5.82;2.70;;;30.30;82.40;;;;;;4942116;28;20513;-79
2023/08/22 12:59:17;;;;;;;6.90;3.50;;;30.90;74.70;;;;;;4949692;28;20405;-79
2023/08/22 13:05:12;;;;;;;6.13;4.18;;;30.40;68.20;;;;;;4958509;28;20051;-79
2023/08/22 13:07:56;;;;;;;;;;;30.10;71.10;;;;;;4943323;28;20046;-79
2023/08/22 13:10:59;;;;;;;6.43;4.18;;;30.40;69.30;;;;;;4959061;28;19918;-79
2023/08/22 13:13:43;;;;;;;7.15;4.60;;;30.70;70.00;;;;;;4923431;29;20039;-79
2023/08/22 13:16:14;;;;;;;7.07;5.05;;;30.70;69.20;;;;;;4923183;29;20059;-79
2023/08/22 13:18:47;;;;;;;7.57;4.75;;;30.50;68.80;;;;;;4939726;29;20478;-79
2023/08/22 13:21:13;;;;;;;7.25;4.20;;;30.30;69.20;;;;;;4923055;29;20046;-79
2023/08/22 13:24:06;;;;;;;8.63;5.20;;;29.90;70.40;;;;;;4939263;28;20089;-79
2023/08/22 13:26:40;;;;;;;7.75;4.95;;;29.60;74.40;;;;;;4938539;28;20031;-78
2023/08/22 13:29:20;;;;;;;8.32;5.25;;;29.50;75.90;;;;;;4940430;28;20508;-78
2023/08/22 14:36:36;;;;;;;20.92;5.30;;;28.70;80.10;;;;;;6280190;22;20019;-77
2023/08/22 14:39:03;;;;;;;7.90;5.22;;;28.30;94.90;;;;;;6156501;23;1260876;-77
2023/08/22 14:41:29;;;;;;;10.85;5.00;;;28.00;95.20;;;;;;6193909;23;20070;-77